createdAt,value
2022-11-16T00:01:33.383Z,8.20
2022-11-16T00:04:02.254Z,8.20
2022-11-16T00:06:29.447Z,8.20
2022-11-16T00:09:18.230Z,8.10
2022-11-16T00:11:46.058Z,8.10
2022-11-16T00:14:12.943Z,8.10
2022-11-16T00:16:40.442Z,8.00
2022-11-16T00:19:08.003Z,8.00
2022-11-16T00:21:35.128Z,8.00
2022-11-16T00:24:02.713Z,8.00
2022-11-16T00:26:30.239Z,7.90
2022-11-16T00:28:57.827Z,7.90
2022-11-16T00:31:25.242Z,7.90
2022-11-16T00:33:52.339Z,7.90
2022-11-16T00:36:19.518Z,8.00
2022-11-16T00:38:46.990Z,8.10
2022-11-16T00:41:13.983Z,8.20
2022-11-16T00:43:41.052Z,8.30
2022-11-16T00:46:09.484Z,8.40
2022-11-16T00:48:36.776Z,8.50
2022-11-16T00:51:04.306Z,8.50
2022-11-16T00:53:31.551Z,8.50
2022-11-16T00:55:59.622Z,8.50
2022-11-16T00:58:26.447Z,8.40
2022-11-16T01:01:09.414Z,8.40
2022-11-16T01:03:37.300Z,8.30
2022-11-16T01:06:10.966Z,8.20
2022-11-16T01:08:39.284Z,8.10
2022-11-16T01:11:25.646Z,8.00
2022-11-16T01:13:53.110Z,8.00
2022-11-16T01:16:21.592Z,7.90
2022-11-16T01:18:53.145Z,7.80
2022-11-16T01:21:21.123Z,7.70
2022-11-16T01:23:47.995Z,7.60
2022-11-16T01:26:16.125Z,7.50
2022-11-16T01:28:43.350Z,7.50
2022-11-16T01:31:11.485Z,7.40
2022-11-16T01:33:39.206Z,7.40
2022-11-16T01:36:15.160Z,7.40
2022-11-16T01:38:45.522Z,7.30
2022-11-16T01:41:16.283Z,7.30
2022-11-16T01:43:52.082Z,7.30
2022-11-16T01:46:19.633Z,7.30
2022-11-16T01:48:48.212Z,7.30
2022-11-16T01:51:16.587Z,7.30
2022-11-16T01:53:44.040Z,7.30
2022-11-16T01:56:11.194Z,7.40
2022-11-16T01:58:46.361Z,7.50
2022-11-16T02:01:18.507Z,7.60
2022-11-16T02:03:50.817Z,7.60
2022-11-16T02:06:27.254Z,7.80
2022-11-16T02:09:55.197Z,7.90
2022-11-16T02:12:54.181Z,8.00
2022-11-16T02:15:37.874Z,8.10
2022-11-16T02:18:31.781Z,8.10
2022-11-16T02:21:36.847Z,8.00
2022-11-16T02:24:34.455Z,8.00
2022-11-16T02:27:39.350Z,8.00
2022-11-16T02:30:07.013Z,8.00
2022-11-16T02:32:44.151Z,8.10
2022-11-16T02:35:21.262Z,8.10
2022-11-16T02:38:12.188Z,8.20
2022-11-16T02:40:42.588Z,8.30
2022-11-16T02:43:14.042Z,8.30
2022-11-16T02:45:45.669Z,8.40
2022-11-16T02:48:19.518Z,8.50
2022-11-16T02:50:48.928Z,8.50
2022-11-16T02:53:15.743Z,8.50
2022-11-16T02:55:42.718Z,8.50
2022-11-16T02:58:14.387Z,8.40
2022-11-16T03:00:48.458Z,8.30
2022-11-16T03:03:31.271Z,8.20
2022-11-16T03:06:13.091Z,8.10
2022-11-16T03:08:46.118Z,8.00
2022-11-16T03:11:33.343Z,7.90
2022-11-16T03:14:06.160Z,7.80
2022-11-16T03:16:48.760Z,7.70
2022-11-16T03:19:25.821Z,7.70
2022-11-16T03:21:59.381Z,7.70
2022-11-16T03:24:26.187Z,7.70
2022-11-16T03:27:02.678Z,7.70
2022-11-16T03:29:42.764Z,7.80
2022-11-16T03:32:20.632Z,7.90
2022-11-16T03:35:10.956Z,7.90
2022-11-16T03:37:40.330Z,8.00
2022-11-16T03:40:12.138Z,8.00
2022-11-16T03:42:41.068Z,8.10
2022-11-16T03:45:10.152Z,8.10
2022-11-16T03:47:41.483Z,8.20
2022-11-16T03:50:09.177Z,8.20
2022-11-16T03:52:36.256Z,8.20
2022-11-16T03:55:04.447Z,8.30
2022-11-16T03:57:35.601Z,8.30
2022-11-16T04:00:03.563Z,8.40
2022-11-16T04:02:40.117Z,8.40
2022-11-16T04:05:28.441Z,8.40
2022-11-16T04:08:13.967Z,8.40
2022-11-16T04:10:59.263Z,8.40
2022-11-16T04:13:50.814Z,8.40
2022-11-16T04:16:38.248Z,8.40
2022-11-16T04:19:27.854Z,8.40
2022-11-16T04:22:20.899Z,8.40
2022-11-16T04:24:54.320Z,8.40
2022-11-16T04:27:46.520Z,8.40
2022-11-16T04:30:14.163Z,8.40
2022-11-16T04:33:00.529Z,8.40
2022-11-16T04:35:45.843Z,8.30
2022-11-16T04:38:13.889Z,8.30
2022-11-16T04:40:40.916Z,8.30
2022-11-16T04:43:11.078Z,8.30
2022-11-16T04:46:07.147Z,8.30
2022-11-16T04:48:39.108Z,8.30
2022-11-16T04:51:06.696Z,8.30
2022-11-16T04:53:34.539Z,8.30
2022-11-16T04:56:09.570Z,8.30
2022-11-16T04:58:37.897Z,8.30
2022-11-16T05:01:04.899Z,8.20
2022-11-16T05:03:31.980Z,8.20
2022-11-16T05:06:03.057Z,8.10
2022-11-16T05:08:30.218Z,8.10
2022-11-16T05:10:58.731Z,8.10
2022-11-16T05:13:25.638Z,8.00
2022-11-16T05:15:53.203Z,8.00
2022-11-16T05:18:20.015Z,8.00
2022-11-16T05:21:02.373Z,8.00
2022-11-16T05:23:53.269Z,7.90
2022-11-16T05:26:23.006Z,7.90
2022-11-16T05:28:50.917Z,7.90
2022-11-16T05:31:18.175Z,7.80
2022-11-16T05:33:45.071Z,7.80
2022-11-16T05:36:33.343Z,7.70
2022-11-16T05:39:00.258Z,7.70
2022-11-16T05:41:31.520Z,7.70
2022-11-16T05:43:59.311Z,7.70
2022-11-16T05:46:26.612Z,7.70
2022-11-16T05:48:56.466Z,7.60
2022-11-16T05:51:24.779Z,7.70
2022-11-16T05:53:53.389Z,7.70
2022-11-16T05:56:23.068Z,7.70
2022-11-16T05:58:52.307Z,7.70
2022-11-16T06:01:20.398Z,7.80
2022-11-16T06:03:49.263Z,7.80
2022-11-16T06:06:17.322Z,7.90
2022-11-16T06:08:44.760Z,8.00
2022-11-16T06:11:16.122Z,8.00
2022-11-16T06:13:43.974Z,8.10
2022-11-16T06:16:13.284Z,8.10
2022-11-16T06:18:42.974Z,8.20
2022-11-16T06:21:11.156Z,8.20
2022-11-16T06:23:38.571Z,8.30
2022-11-16T06:26:09.612Z,8.30
2022-11-16T06:28:37.765Z,8.30
2022-11-16T06:31:05.490Z,8.30
2022-11-16T06:33:36.983Z,8.30
2022-11-16T06:36:28.652Z,8.30
2022-11-16T06:39:00.084Z,8.40
2022-11-16T06:41:28.357Z,8.40
2022-11-16T06:43:55.459Z,8.40
2022-11-16T06:46:26.794Z,8.40
2022-11-16T06:48:54.144Z,8.40
2022-11-16T06:51:21.752Z,8.40
2022-11-16T06:53:48.798Z,8.40
2022-11-16T06:56:16.585Z,8.40
2022-11-16T06:58:53.018Z,8.40
2022-11-16T07:01:20.755Z,8.40
2022-11-16T07:03:49.374Z,8.40
2022-11-16T07:06:17.135Z,8.40
2022-11-16T07:08:45.914Z,8.40
2022-11-16T07:11:16.026Z,8.40
2022-11-16T07:13:43.400Z,8.40
2022-11-16T07:16:12.291Z,8.40
2022-11-16T07:18:44.555Z,8.40
2022-11-16T07:21:13.776Z,8.30
2022-11-16T07:23:42.175Z,8.30
2022-11-16T07:26:12.655Z,8.30
2022-11-16T07:28:51.443Z,8.20
2022-11-16T07:31:21.395Z,8.30
2022-11-16T07:34:05.966Z,8.30
2022-11-16T07:36:47.419Z,8.30
2022-11-16T07:39:14.422Z,8.30
2022-11-16T07:41:44.976Z,8.40
2022-11-16T07:44:22.916Z,8.40
2022-11-16T07:47:02.854Z,8.40
2022-11-16T07:49:31.933Z,8.40
2022-11-16T07:52:03.948Z,8.40
2022-11-16T07:54:53.976Z,8.40
2022-11-16T07:57:24.462Z,8.40
2022-11-16T07:59:53.529Z,8.40
2022-11-16T08:02:20.558Z,8.40
2022-11-16T08:04:50.138Z,8.50
2022-11-16T08:07:20.506Z,8.40
2022-11-16T08:09:52.648Z,8.50
2022-11-16T08:12:20.869Z,8.50
2022-11-16T08:14:48.146Z,8.50
2022-11-16T08:17:15.699Z,8.60
2022-11-16T08:19:43.808Z,8.60
2022-11-16T08:22:15.848Z,8.60
2022-11-16T08:24:44.268Z,8.70
2022-11-16T08:27:13.084Z,8.70
2022-11-16T08:29:40.012Z,8.70
2022-11-16T08:32:09.030Z,8.70
2022-11-16T08:34:36.248Z,8.70
2022-11-16T08:37:06.508Z,8.80
2022-11-16T08:39:43.218Z,8.80
2022-11-16T08:42:10.288Z,8.80
2022-11-16T08:44:38.324Z,8.90
2022-11-16T08:47:29.522Z,8.90
2022-11-16T08:49:58.720Z,8.90
2022-11-16T08:52:29.018Z,8.90
2022-11-16T08:54:56.881Z,9.00
2022-11-16T08:57:25.806Z,9.00
2022-11-16T08:59:57.347Z,9.00
2022-11-16T09:02:25.668Z,9.00
2022-11-16T09:04:53.344Z,9.10
2022-11-16T09:07:21.325Z,9.10
2022-11-16T09:09:48.540Z,9.10
2022-11-16T09:12:15.563Z,9.10
2022-11-16T09:14:42.362Z,9.10
2022-11-16T09:17:09.551Z,9.10
2022-11-16T09:19:36.368Z,9.20
2022-11-16T09:22:04.191Z,9.20
2022-11-16T09:24:31.438Z,9.20
2022-11-16T09:27:02.416Z,9.30
2022-11-16T09:29:29.282Z,9.30
2022-11-16T09:31:58.310Z,9.40
2022-11-16T09:34:25.612Z,9.50
2022-11-16T09:36:52.580Z,9.70
2022-11-16T09:39:30.534Z,10.10
2022-11-16T09:42:00.879Z,10.50
2022-11-16T09:44:46.520Z,11.10
2022-11-16T09:47:17.749Z,11.70
2022-11-16T09:49:54.110Z,12.40
2022-11-16T09:52:34.411Z,13.00
2022-11-16T09:55:20.470Z,13.60
2022-11-16T09:57:48.129Z,14.10
2022-11-16T10:00:20.426Z,14.50
2022-11-16T10:03:11.991Z,14.80
2022-11-16T10:05:46.550Z,15.30
2022-11-16T10:08:24.794Z,15.70
2022-11-16T10:11:11.889Z,16.00
2022-11-16T10:14:04.362Z,16.20
2022-11-16T10:16:55.736Z,16.40
2022-11-16T10:19:46.931Z,16.60
2022-11-16T10:22:59.065Z,16.40
2022-11-16T10:25:46.455Z,16.60
2022-11-16T10:28:26.444Z,16.70
2022-11-16T10:31:09.475Z,16.30
2022-11-16T10:33:38.212Z,15.90
2022-11-16T10:36:12.815Z,16.20
2022-11-16T10:38:41.386Z,16.50
2022-11-16T10:41:33.262Z,16.50
2022-11-16T10:44:00.930Z,15.90
2022-11-16T10:46:36.301Z,15.10
2022-11-16T10:49:15.730Z,14.30
2022-11-16T10:51:43.515Z,13.70
2022-11-16T10:54:17.410Z,13.10
2022-11-16T10:57:17.754Z,12.70
2022-11-16T10:59:47.578Z,12.40
2022-11-16T11:02:36.126Z,12.30
2022-11-16T11:05:21.428Z,12.40
2022-11-16T11:07:59.900Z,13.00
2022-11-16T11:10:38.671Z,13.90
2022-11-16T11:13:11.498Z,14.50
2022-11-16T11:15:42.855Z,14.50
2022-11-16T11:18:35.370Z,14.40
2022-11-16T11:21:28.281Z,14.70
2022-11-16T11:24:10.532Z,16.00
2022-11-16T11:26:51.693Z,17.10
2022-11-16T11:29:25.907Z,17.30
2022-11-16T11:32:01.242Z,16.40
2022-11-16T11:34:30.627Z,15.30
2022-11-16T11:37:05.042Z,14.50
2022-11-16T11:39:34.832Z,13.90
2022-11-16T11:42:06.965Z,13.60
2022-11-16T11:45:06.670Z,13.40
2022-11-16T11:47:59.849Z,13.10
2022-11-16T11:50:54.025Z,12.90
2022-11-16T11:53:39.610Z,12.60
2022-11-16T11:56:08.839Z,12.20
2022-11-16T11:58:39.137Z,12.00
2022-11-16T12:01:27.444Z,11.80
2022-11-16T12:04:24.624Z,11.70
2022-11-16T12:07:17.221Z,11.50
2022-11-16T12:10:41.007Z,11.60
2022-11-16T12:13:49.054Z,11.80
2022-11-16T12:16:26.018Z,11.90
2022-11-16T12:19:11.410Z,11.80
2022-11-16T12:22:10.264Z,11.70
2022-11-16T12:25:09.670Z,11.60
2022-11-16T12:28:00.956Z,11.60
2022-11-16T12:30:27.961Z,11.50
2022-11-16T12:33:13.447Z,11.50
2022-11-16T12:35:58.910Z,11.50
2022-11-16T12:38:49.827Z,11.40
2022-11-16T12:41:41.261Z,11.40
2022-11-16T12:44:16.985Z,11.30
2022-11-16T12:47:02.065Z,11.40
2022-11-16T12:49:44.609Z,11.50
2022-11-16T12:52:50.535Z,11.70
2022-11-16T12:55:32.387Z,11.80
2022-11-16T12:58:16.066Z,11.90
2022-11-16T13:01:08.459Z,12.00
2022-11-16T13:03:48.817Z,12.00
2022-11-16T13:06:21.197Z,12.10
2022-11-16T13:09:00.089Z,12.10
2022-11-16T13:11:37.131Z,12.10
2022-11-16T13:14:44.795Z,12.10
2022-11-16T13:17:22.313Z,12.10
2022-11-16T13:20:21.234Z,12.00
2022-11-16T13:23:14.311Z,12.10
2022-11-16T13:25:52.425Z,12.00
2022-11-16T13:28:50.658Z,12.00
2022-11-16T13:31:44.029Z,12.00
2022-11-16T13:34:30.470Z,11.90
2022-11-16T13:37:36.478Z,11.90
2022-11-16T13:40:06.089Z,11.90
2022-11-16T13:43:03.610Z,11.90
2022-11-16T13:45:48.429Z,11.90
2022-11-16T13:48:30.717Z,11.90
2022-11-16T13:51:00.713Z,11.90
2022-11-16T13:56:48.630Z,11.70
2022-11-16T13:59:23.358Z,11.70
2022-11-16T14:02:02.759Z,11.70
2022-11-16T14:04:41.761Z,11.60
2022-11-16T14:07:37.546Z,11.60
2022-11-16T14:10:06.018Z,11.60
2022-11-16T14:12:38.809Z,11.50
2022-11-16T14:15:24.838Z,11.50
2022-11-16T14:18:22.662Z,11.40
2022-11-16T14:20:57.878Z,11.40
2022-11-16T14:24:01.509Z,11.40
2022-11-16T14:26:41.942Z,11.30
2022-11-16T14:29:20.093Z,11.30
2022-11-16T14:31:58.728Z,11.20
2022-11-16T14:34:41.001Z,11.20
2022-11-16T14:37:33.207Z,11.10
2022-11-16T14:40:14.738Z,11.10
2022-11-16T14:43:15.561Z,11.10
2022-11-16T14:45:53.189Z,11.00
2022-11-16T14:48:22.223Z,11.00
2022-11-16T14:51:09.629Z,10.90
2022-11-16T14:53:41.667Z,10.90
2022-11-16T14:56:14.870Z,10.90
2022-11-16T14:59:02.160Z,10.90
2022-11-16T15:01:36.349Z,10.90
2022-11-16T15:04:15.819Z,10.90
2022-11-16T15:07:03.765Z,10.90
2022-11-16T15:09:30.627Z,10.90
2022-11-16T15:12:17.717Z,10.90
2022-11-16T15:14:53.447Z,10.90
2022-11-16T15:17:27.259Z,10.90
2022-11-16T15:19:59.436Z,10.80
2022-11-16T15:22:29.678Z,10.80
2022-11-16T15:25:01.362Z,10.80
2022-11-16T15:27:41.537Z,10.80
2022-11-16T15:30:20.714Z,10.80
2022-11-16T15:32:49.744Z,10.80
2022-11-16T15:35:22.201Z,10.80
2022-11-16T15:38:13.913Z,10.80
2022-11-16T15:40:47.923Z,10.80
2022-11-16T15:43:15.677Z,10.70
2022-11-16T15:45:43.560Z,10.70
2022-11-16T15:48:19.922Z,10.70
2022-11-16T15:51:13.822Z,10.70
2022-11-16T15:53:46.280Z,10.70
2022-11-16T15:56:31.937Z,10.70
2022-11-16T15:59:02.496Z,10.60
2022-11-16T16:01:30.390Z,10.60
2022-11-16T16:04:01.444Z,10.60
2022-11-16T16:06:55.536Z,10.60
2022-11-16T16:09:22.309Z,10.60
2022-11-16T16:11:49.399Z,10.60
2022-11-16T16:14:25.373Z,10.50
2022-11-16T16:16:59.259Z,10.50
2022-11-16T16:19:35.667Z,10.40
2022-11-16T16:22:04.737Z,10.40
2022-11-16T16:24:45.334Z,10.40
2022-11-16T16:27:20.525Z,10.40
2022-11-16T16:29:49.459Z,10.40
2022-11-16T16:32:28.769Z,10.40
2022-11-16T16:35:01.430Z,10.40
2022-11-16T16:37:35.973Z,10.40
2022-11-16T16:40:03.337Z,10.50
2022-11-16T16:42:30.166Z,10.40
2022-11-16T16:44:59.810Z,10.40
2022-11-16T16:47:27.882Z,10.40
2022-11-16T16:49:54.789Z,10.40
2022-11-16T16:52:21.675Z,10.50
2022-11-16T16:54:48.548Z,10.40
2022-11-16T16:57:18.428Z,10.40
2022-11-16T16:59:48.141Z,10.40
2022-11-16T17:02:16.161Z,10.50
2022-11-16T17:04:49.261Z,10.50
2022-11-16T17:07:18.465Z,10.50
2022-11-16T17:09:45.635Z,10.50
2022-11-16T17:12:12.521Z,10.50
2022-11-16T17:14:39.458Z,10.60
2022-11-16T17:17:07.369Z,10.60
2022-11-16T17:19:34.290Z,10.60
2022-11-16T17:22:01.423Z,10.50
2022-11-16T17:24:28.567Z,10.50
2022-11-16T17:26:55.601Z,10.50
2022-11-16T17:29:22.397Z,10.40
2022-11-16T17:31:49.268Z,10.40
2022-11-16T17:34:16.082Z,10.40
2022-11-16T17:36:44.883Z,10.40
2022-11-16T17:39:11.728Z,10.30
2022-11-16T17:41:38.568Z,10.40
2022-11-16T17:44:06.131Z,10.30
2022-11-16T17:46:33.246Z,10.30
2022-11-16T17:49:00.219Z,10.20
2022-11-16T17:51:29.741Z,10.30
2022-11-16T17:53:56.541Z,10.20
2022-11-16T17:56:28.362Z,10.10
2022-11-16T17:59:08.336Z,10.10
2022-11-16T18:01:35.436Z,10.10
2022-11-16T18:04:03.605Z,10.10
2022-11-16T18:06:35.800Z,10.10
2022-11-16T18:09:02.652Z,10.10
2022-11-16T18:11:29.901Z,10.10
2022-11-16T18:13:58.952Z,10.10
2022-11-16T18:16:28.112Z,10.10
2022-11-16T18:18:57.854Z,10.10
2022-11-16T18:21:25.269Z,10.10
2022-11-16T18:23:52.267Z,10.00
2022-11-16T18:26:22.110Z,10.00
2022-11-16T18:28:50.454Z,10.00
2022-11-16T18:31:20.122Z,10.00
2022-11-16T18:33:49.184Z,10.00
2022-11-16T18:36:17.062Z,10.00
2022-11-16T18:38:44.323Z,10.00
2022-11-16T18:41:16.449Z,9.90
2022-11-16T18:43:50.419Z,9.90
2022-11-16T18:46:20.261Z,9.90
2022-11-16T18:48:47.618Z,9.90
2022-11-16T18:51:16.136Z,9.90
2022-11-16T18:53:43.509Z,9.90
2022-11-16T18:56:12.994Z,9.90
2022-11-16T18:58:50.427Z,9.90
2022-11-16T19:01:20.278Z,9.90
2022-11-16T19:03:47.381Z,9.90
2022-11-16T19:06:17.114Z,9.90
2022-11-16T19:08:47.714Z,9.80
2022-11-16T19:11:20.311Z,9.90
2022-11-16T19:13:52.665Z,9.90
2022-11-16T19:16:45.216Z,9.80
2022-11-16T19:19:15.834Z,9.90
2022-11-16T19:21:42.716Z,9.80
2022-11-16T19:24:10.150Z,9.80
2022-11-16T19:26:37.122Z,9.80
2022-11-16T19:29:04.270Z,9.80
2022-11-16T19:31:32.583Z,9.80
2022-11-16T19:34:02.757Z,9.80
2022-11-16T19:36:31.000Z,9.80
2022-11-16T19:38:58.898Z,9.80
2022-11-16T19:41:27.102Z,9.80
2022-11-16T19:43:58.307Z,9.80
2022-11-16T19:46:28.507Z,9.80
2022-11-16T19:48:55.913Z,9.80
2022-11-16T19:51:25.216Z,9.90
2022-11-16T19:53:52.537Z,9.90
2022-11-16T19:56:21.322Z,9.90
2022-11-16T19:58:48.534Z,9.90
2022-11-16T20:01:18.850Z,9.90
2022-11-16T20:03:47.448Z,9.90
2022-11-16T20:06:26.523Z,9.80
2022-11-16T20:09:02.836Z,9.80
2022-11-16T20:11:33.799Z,9.80
2022-11-16T20:14:03.135Z,9.80
2022-11-16T20:16:37.147Z,9.80
2022-11-16T20:19:09.052Z,9.80
2022-11-16T20:21:38.215Z,9.80
2022-11-16T20:24:07.404Z,9.80
2022-11-16T20:26:40.583Z,9.80
2022-11-16T20:29:07.414Z,9.80
2022-11-16T20:31:34.626Z,9.80
2022-11-16T20:34:04.377Z,9.80
2022-11-16T20:36:51.617Z,9.80
2022-11-16T20:39:20.515Z,9.80
2022-11-16T20:41:48.041Z,9.80
2022-11-16T20:44:22.057Z,9.90
2022-11-16T20:47:10.891Z,9.80
2022-11-16T20:49:37.740Z,9.90
2022-11-16T20:52:04.965Z,9.90
2022-11-16T20:54:32.091Z,9.90
2022-11-16T20:57:17.994Z,9.90
2022-11-16T20:59:44.843Z,9.90
2022-11-16T21:02:11.736Z,9.90
2022-11-16T21:04:42.044Z,9.90
2022-11-16T21:07:12.290Z,9.90
2022-11-16T21:09:59.253Z,10.00
2022-11-16T21:12:44.670Z,10.00
2022-11-16T21:15:11.634Z,10.10
2022-11-16T21:17:39.787Z,10.20
2022-11-16T21:20:26.423Z,10.20
2022-11-16T21:22:53.948Z,10.30
2022-11-16T21:25:20.921Z,10.40
2022-11-16T21:27:48.987Z,10.40
2022-11-16T21:30:16.208Z,10.40
2022-11-16T21:32:43.079Z,10.50
2022-11-16T21:35:09.926Z,10.50
2022-11-16T21:37:37.941Z,10.50
2022-11-16T21:40:05.050Z,10.50
2022-11-16T21:42:31.859Z,10.40
2022-11-16T21:44:58.810Z,10.30
2022-11-16T21:47:25.931Z,10.30
2022-11-16T21:50:29.646Z,10.20
2022-11-16T21:52:41.067Z,10.20
2022-11-16T21:55:08.618Z,10.20
2022-11-16T21:57:35.681Z,10.10
2022-11-16T22:00:02.839Z,10.10
2022-11-16T22:02:38.378Z,10.10
2022-11-16T22:05:24.109Z,10.10
2022-11-16T22:07:56.276Z,10.10
2022-11-16T22:10:23.202Z,10.10
2022-11-16T22:12:49.968Z,10.20
2022-11-16T22:15:17.061Z,10.30
2022-11-16T22:17:44.502Z,10.40
2022-11-16T22:20:11.721Z,10.40
2022-11-16T22:22:38.541Z,10.40
2022-11-16T22:25:06.212Z,10.40
2022-11-16T22:28:19.820Z,10.40
2022-11-16T22:30:45.100Z,10.40
2022-11-16T22:33:15.595Z,10.50
2022-11-16T22:35:42.425Z,10.50
2022-11-16T22:38:10.933Z,10.60
2022-11-16T22:40:37.722Z,10.70
2022-11-16T22:43:04.575Z,10.70
2022-11-16T22:45:31.614Z,10.70
2022-11-16T22:48:37.164Z,10.80
2022-11-16T22:51:05.723Z,10.90
2022-11-16T22:53:33.142Z,10.90
2022-11-16T22:56:40.035Z,10.90
2022-11-16T22:59:06.994Z,10.90
2022-11-16T23:01:33.817Z,10.90
2022-11-16T23:04:00.731Z,11.00
2022-11-16T23:06:49.375Z,11.00
2022-11-16T23:09:16.341Z,11.00
2022-11-16T23:12:01.635Z,11.00
2022-11-16T23:14:47.232Z,10.90
2022-11-16T23:17:16.334Z,10.80
2022-11-16T23:20:01.497Z,10.80
2022-11-16T23:22:46.818Z,10.80
2022-11-16T23:25:32.260Z,10.80
2022-11-16T23:28:07.553Z,10.80
2022-11-16T23:30:35.660Z,10.90
2022-11-16T23:33:03.412Z,11.00
2022-11-16T23:35:30.248Z,11.00
2022-11-16T23:38:16.717Z,11.00
2022-11-16T23:40:43.617Z,11.10
2022-11-16T23:43:29.451Z,11.10
2022-11-16T23:45:57.281Z,11.00
2022-11-16T23:48:24.086Z,11.00
2022-11-16T23:50:50.933Z,11.10
2022-11-16T23:53:17.810Z,11.10
2022-11-16T23:55:44.683Z,11.20
2022-11-16T23:58:14.948Z,11.20
